Jaffrey, New Hampshire
Current Conditions -  °F | °C
As of 10:20 PM on Thursday 27 Nov 2014 (Local Time) from KAFN Reporting Station
Light Snow Light Snow  
Wind Chill: -3°   Ceiling: NA
Heat Index: -3°   Visibility: 2.5mi
Dew Point: -5°   Wind: 0mph
Humidity: 88%   Direction: NA
Pressure: 29.98"   Gusts: NA
Location:  42.81°N, 72.02°W
Report Text: KAFN 280320Z AUTO 00000KT 2 1/2SM -SN BR M03/M05 A2998 RMK AO2 SNB04 P0000 T10331050 $
Loading
Personal Weather Stations






























Interactive Weather Map New forecast layout! Learn more

10-Day Weather Forecast

Advertisements
Track Severe Weather on mobile